Time;durP1;ratioP1;P1;durP2;ratioP2;P2;SDS_P1;SDS_P2;PMS_P1;PMS_P2;Temp;Humidity;BMP_temperature;BMP_pressure;BME280_temperature;BME280_humidity;BME280_pressure;Samples;Min_cycle;Max_cycle;Signal;HPM_P1;HPM_P2
2021/12/17 00:00:28;;;;;;;45.90;16.05;;;;;;;;;;5005448;28;20213;-59
2021/12/17 00:03:10;;;;;;;39.88;15.82;;;;;;;;;;4999326;28;20724;-58
2021/12/17 00:05:50;;;;;;;36.17;15.50;;;;;;;;;;4997313;28;20777;-58
2021/12/17 00:08:16;;;;;;;34.22;15.05;;;;;;;;;;4996865;28;20448;-59
2021/12/17 00:10:41;;;;;;;41.63;15.80;;;;;;;;;;5005353;28;20573;-59
2021/12/17 00:13:07;;;;;;;40.38;16.20;;;;;;;;;;5004599;28;20216;-59
2021/12/17 00:15:32;;;;;;;40.75;16.30;;;;;;;;;;5005353;28;20248;-59
2021/12/17 00:18:05;;;;;;;47.38;18.23;;;;;;;;;;5005193;28;20235;-58
2021/12/17 00:20:52;;;;;;;47.97;17.83;;;;;;;;;;5004540;28;20227;-59
2021/12/17 00:51:32;;;;;;;54.50;19.23;;;;;;;;;;4995424;28;20464;-59
2021/12/17 00:53:31;;;;;;;53.75;19.02;;;;;;;;;;4996774;28;20227;-59
2021/12/17 00:55:56;;;;;;;50.30;18.10;;;;;;;;;;5004321;28;20575;-59
2021/12/17 00:58:21;;;;;;;55.33;19.63;;;;;;;;;;5004566;28;20209;-59
2021/12/17 01:00:47;;;;;;;62.05;19.83;;;;;;;;;;5005267;28;20258;-59
2021/12/17 01:03:12;;;;;;;59.83;20.52;;;;;;;;;;5003903;28;20664;-59
2021/12/17 01:05:37;;;;;;;54.42;20.40;;;;;;;;;;5005112;28;20300;-59
2021/12/17 01:08:03;;;;;;;62.50;19.50;;;;;;;;;;5004241;28;20219;-59
2021/12/17 01:10:30;;;;;;;105.30;21.70;;;;;;;;;;4997553;28;20559;-59
2021/12/17 01:12:55;;;;;;;110.13;22.65;;;;;;;;;;4996563;28;20319;-59
2021/12/17 01:15:20;;;;;;;94.82;21.65;;;;;;;;;;4995999;28;20305;-59
2021/12/17 01:17:48;;;;;;;75.15;21.38;;;;;;;;;;5003134;28;20224;-59
2021/12/17 01:20:27;;;;;;;60.25;19.88;;;;;;;;;;5004420;28;20230;-59
2021/12/17 01:23:06;;;;;;;58.63;20.15;;;;;;;;;;5004490;28;20573;-59
2021/12/17 01:36:34;;;;;;;65.13;20.70;;;;;;;;;;4999841;28;20227;-59
2021/12/17 01:41:46;;;;;;;53.67;19.15;;;;;;;;;;5008373;28;20220;-59
2021/12/17 01:44:11;;;;;;;56.05;20.67;;;;;;;;;;5007684;28;20287;-59
2021/12/17 01:46:37;;;;;;;60.42;20.13;;;;;;;;;;5007779;28;21483;-59
2021/12/17 01:59:48;;;;;;;53.17;18.42;;;;;;;;;;4999196;28;20703;-59
2021/12/17 02:02:14;;;;;;;52.20;18.80;;;;;;;;;;5005015;28;20335;-60
2021/12/17 02:04:39;;;;;;;61.25;19.08;;;;;;;;;;5008318;28;20656;-59
2021/12/17 02:07:05;;;;;;;48.78;18.67;;;;;;;;;;5006609;28;20208;-59
2021/12/17 02:20:28;;;;;;;60.33;21.10;;;;;;;;;;4997785;28;20662;-59
2021/12/17 02:28:43;;;;;;;50.50;18.63;;;;;;;;;;5005644;28;20243;-59
2021/12/17 02:31:25;;;;;;;51.80;18.35;;;;;;;;;;5006798;28;20299;-59
2021/12/17 02:33:51;;;;;;;52.55;17.77;;;;;;;;;;5006147;28;20204;-59
2021/12/17 02:36:21;;;;;;;49.47;18.33;;;;;;;;;;5006737;28;20694;-59
2021/12/17 02:38:46;;;;;;;50.88;18.80;;;;;;;;;;5004947;28;20208;-59
2021/12/17 02:46:39;;;;;;;100.63;18.30;;;;;;;;;;5001962;28;20649;-59
2021/12/17 02:49:05;;;;;;;44.22;17.33;;;;;;;;;;5005628;28;20311;-59
2021/12/17 02:51:31;;;;;;;46.30;18.13;;;;;;;;;;5006679;28;20746;-59
2021/12/17 02:53:56;;;;;;;64.35;18.30;;;;;;;;;;5006924;28;20236;-59
2021/12/17 02:56:21;;;;;;;42.28;14.98;;;;;;;;;;4986873;28;20917;-59
2021/12/17 02:58:47;;;;;;;72.65;16.00;;;;;;;;;;5006722;28;20638;-59
2021/12/17 03:01:12;;;;;;;70.32;17.40;;;;;;;;;;5004368;28;20698;-59
2021/12/17 03:03:38;;;;;;;43.25;15.73;;;;;;;;;;4996792;28;20754;-59
2021/12/17 03:06:03;;;;;;;43.35;15.73;;;;;;;;;;4997658;28;20251;-59
2021/12/17 03:08:29;;;;;;;43.05;15.38;;;;;;;;;;4999681;28;20213;-59
2021/12/17 03:10:54;;;;;;;48.42;13.43;;;;;;;;;;5005134;28;20246;-59
2021/12/17 03:13:21;;;;;;;26.63;11.23;;;;;;;;;;5005600;28;20224;-59
2021/12/17 03:15:53;;;;;;;34.30;12.52;;;;;;;;;;5006174;28;20696;-59
2021/12/17 03:23:39;;;;;;;26.20;11.07;;;;;;;;;;5003578;28;20227;-59
2021/12/17 03:26:06;;;;;;;27.25;11.10;;;;;;;;;;4997688;28;20312;-59
2021/12/17 03:28:31;;;;;;;27.00;10.60;;;;;;;;;;4997607;28;20288;-59
2021/12/17 03:30:57;;;;;;;27.65;10.40;;;;;;;;;;4998645;28;20608;-59
2021/12/17 03:33:22;;;;;;;25.83;11.13;;;;;;;;;;5005410;28;20197;-59
2021/12/17 03:35:48;;;;;;;28.20;10.80;;;;;;;;;;5005744;28;21439;-59
2021/12/17 03:38:13;;;;;;;26.52;10.38;;;;;;;;;;5004408;28;20660;-59
2021/12/17 03:40:41;;;;;;;23.15;10.18;;;;;;;;;;5005877;28;20219;-59
2021/12/17 03:43:12;;;;;;;24.38;10.45;;;;;;;;;;5005172;28;20282;-60
2021/12/17 03:45:37;;;;;;;27.80;10.65;;;;;;;;;;5004848;28;20699;-59
2021/12/17 03:48:02;;;;;;;29.60;10.52;;;;;;;;;;4997428;28;20212;-59
2021/12/17 03:50:28;;;;;;;32.88;11.02;;;;;;;;;;4996965;28;20231;-59
2021/12/17 03:52:53;;;;;;;32.92;10.75;;;;;;;;;;4995790;28;20240;-59
2021/12/17 03:55:18;;;;;;;35.03;10.88;;;;;;;;;;5004751;28;20215;-59
2021/12/17 03:57:44;;;;;;;27.73;10.50;;;;;;;;;;5005251;28;20213;-59
2021/12/17 04:00:09;;;;;;;30.85;9.93;;;;;;;;;;5003840;28;20837;-59
2021/12/17 04:02:35;;;;;;;24.95;9.65;;;;;;;;;;5005488;28;20220;-59
2021/12/17 04:05:00;;;;;;;25.50;10.35;;;;;;;;;;5004971;28;20265;-61
2021/12/17 04:07:26;;;;;;;27.65;10.60;;;;;;;;;;5004813;28;20669;-59
2021/12/17 04:09:51;;;;;;;29.77;10.13;;;;;;;;;;4999640;28;20493;-59
2021/12/17 04:12:19;;;;;;;27.92;10.50;;;;;;;;;;4995913;28;20236;-59
2021/12/17 04:14:47;;;;;;;35.55;11.88;;;;;;;;;;4995483;28;20220;-59
2021/12/17 04:17:20;;;;;;;42.40;12.70;;;;;;;;;;5002206;28;20231;-59
2021/12/17 04:19:46;;;;;;;43.28;11.50;;;;;;;;;;5004494;28;20207;-59
2021/12/17 04:22:11;;;;;;;33.30;11.57;;;;;;;;;;5004462;28;20217;-59
2021/12/17 04:24:36;;;;;;;40.20;11.38;;;;;;;;;;5005559;28;20327;-59
2021/12/17 04:27:02;;;;;;;30.00;11.48;;;;;;;;;;5003867;28;20263;-60
2021/12/17 04:29:27;;;;;;;30.48;11.68;;;;;;;;;;5004858;28;20231;-59
2021/12/17 04:31:55;;;;;;;26.98;10.57;;;;;;;;;;5001086;28;20239;-59
2021/12/17 04:34:20;;;;;;;27.63;11.25;;;;;;;;;;4995719;28;20240;-59
2021/12/17 04:36:48;;;;;;;30.75;11.10;;;;;;;;;;4996331;28;20242;-59
2021/12/17 04:39:16;;;;;;;27.75;11.57;;;;;;;;;;4998941;28;20208;-59
2021/12/17 04:42:02;;;;;;;27.13;10.85;;;;;;;;;;5004076;28;20220;-59
2021/12/17 04:44:31;;;;;;;28.08;11.07;;;;;;;;;;5003907;28;20310;-59
2021/12/17 04:57:16;;;;;;;29.88;10.57;;;;;;;;;;5004816;28;20292;-59
2021/12/17 04:57:47;;;;;;;29.17;11.88;;;;;;;;;;4996223;28;20638;-59
2021/12/17 05:00:18;;;;;;;33.45;12.32;;;;;;;;;;4995831;28;20227;-59
2021/12/17 05:02:47;;;;;;;29.20;11.85;;;;;;;;;;5001691;28;20208;-59
2021/12/17 05:05:12;;;;;;;37.58;13.15;;;;;;;;;;5003791;28;20270;-59
2021/12/17 05:07:45;;;;;;;29.20;12.20;;;;;;;;;;5004925;28;20217;-59
2021/12/17 05:10:23;;;;;;;30.75;12.68;;;;;;;;;;5002829;28;20227;-59
2021/12/17 05:18:23;;;;;;;54.70;14.25;;;;;;;;;;4996483;28;20512;-59
2021/12/17 05:20:50;;;;;;;49.33;14.75;;;;;;;;;;4994525;28;20682;-59
2021/12/17 05:23:16;;;;;;;77.07;15.18;;;;;;;;;;4995278;28;20197;-59
2021/12/17 05:25:41;;;;;;;68.60;16.42;;;;;;;;;;5004376;28;20242;-59
2021/12/17 05:28:06;;;;;;;54.38;16.33;;;;;;;;;;5003706;28;20219;-59
2021/12/17 05:30:32;;;;;;;49.55;15.63;;;;;;;;;;5002082;28;20270;-59
2021/12/17 05:32:58;;;;;;;71.28;16.70;;;;;;;;;;5004368;28;20203;-59
2021/12/17 05:35:23;;;;;;;54.22;15.95;;;;;;;;;;5002558;28;20660;-59
2021/12/17 05:37:48;;;;;;;45.55;15.80;;;;;;;;;;5003809;28;20208;-59
2021/12/17 05:40:14;;;;;;;46.97;15.50;;;;;;;;;;4997037;28;20229;-59
2021/12/17 05:42:40;;;;;;;56.97;15.68;;;;;;;;;;4995798;28;20773;-59
2021/12/17 05:45:19;;;;;;;50.33;15.20;;;;;;;;;;4994544;28;21001;-59
2021/12/17 05:47:45;;;;;;;53.00;15.25;;;;;;;;;;5003833;28;20211;-59
2021/12/17 05:50:10;;;;;;;40.15;15.43;;;;;;;;;;5003530;28;20216;-59
2021/12/17 05:52:35;;;;;;;49.17;15.05;;;;;;;;;;5003500;28;20599;-59
2021/12/17 05:55:00;;;;;;;46.20;14.90;;;;;;;;;;5003670;28;20294;-60
2021/12/17 05:57:26;;;;;;;44.67;14.85;;;;;;;;;;5003940;28;20205;-59
2021/12/17 05:59:51;;;;;;;50.25;16.15;;;;;;;;;;5003207;28;20225;-59
2021/12/17 06:02:19;;;;;;;55.33;16.17;;;;;;;;;;4998287;28;20214;-59
2021/12/17 06:04:44;;;;;;;61.75;16.85;;;;;;;;;;4995096;28;20373;-59
2021/12/17 06:07:09;;;;;;;44.17;15.15;;;;;;;;;;4995173;28;20708;-59
2021/12/17 06:09:34;;;;;;;44.30;14.90;;;;;;;;;;5001171;28;20231;-59
2021/12/17 06:12:00;;;;;;;58.60;16.60;;;;;;;;;;5003109;28;20230;-59
2021/12/17 06:14:25;;;;;;;66.72;16.63;;;;;;;;;;5003756;28;20209;-59
2021/12/17 06:16:50;;;;;;;65.10;16.80;;;;;;;;;;5007296;28;20204;-59
2021/12/17 06:19:19;;;;;;;44.70;14.70;;;;;;;;;;5004785;28;20212;-59
2021/12/17 06:21:44;;;;;;;67.85;17.15;;;;;;;;;;5007371;28;20209;-59
2021/12/17 06:24:10;;;;;;;53.13;15.73;;;;;;;;;;5002551;28;20207;-59
2021/12/17 06:26:35;;;;;;;57.97;15.68;;;;;;;;;;4998651;28;20215;-59
2021/12/17 06:29:00;;;;;;;52.42;16.02;;;;;;;;;;4998533;28;20323;-59
2021/12/17 06:31:27;;;;;;;54.08;15.23;;;;;;;;;;5002573;28;20220;-59
2021/12/17 06:33:52;;;;;;;57.63;15.77;;;;;;;;;;5005780;28;20636;-59
2021/12/17 06:36:18;;;;;;;40.55;14.65;;;;;;;;;;5006633;28;20243;-59
2021/12/17 06:38:43;;;;;;;43.03;15.13;;;;;;;;;;5006897;28;20319;-59
2021/12/17 06:41:08;;;;;;;56.17;16.00;;;;;;;;;;5006079;28;20246;-59
2021/12/17 06:43:38;;;;;;;52.63;15.38;;;;;;;;;;5007084;28;20212;-59
2021/12/17 06:46:19;;;;;;;36.70;14.45;;;;;;;;;;5003328;28;20397;-59
2021/12/17 06:48:47;;;;;;;43.42;14.52;;;;;;;;;;4997788;28;20645;-59
2021/12/17 07:08:29;;;;;;;36.97;12.80;;;;;;;;;;5014389;28;20318;-62
2021/12/17 07:10:29;;;;;;;39.53;13.15;;;;;;;;;;5012480;28;20223;-61
2021/12/17 07:21:23;;;;;;;28.92;10.57;;;;;;;;;;5014297;28;20222;-61
2021/12/17 07:24:35;;;;;;;29.40;10.95;;;;;;;;;;5013008;28;20224;-61
2021/12/17 07:34:46;;;;;;;28.52;10.57;;;;;;;;;;5013366;28;20208;-61
2021/12/17 07:39:36;;;;;;;24.98;10.20;;;;;;;;;;5013925;28;20255;-61
2021/12/17 07:42:02;;;;;;;27.75;10.45;;;;;;;;;;5013425;28;20217;-62
2021/12/17 07:44:27;;;;;;;20.33;9.70;;;;;;;;;;5013057;28;20609;-62
2021/12/17 07:46:53;;;;;;;23.83;9.60;;;;;;;;;;5013366;28;20561;-61
2021/12/17 07:49:18;;;;;;;26.23;10.23;;;;;;;;;;5013106;28;20248;-61
2021/12/17 07:51:43;;;;;;;21.45;9.15;;;;;;;;;;5012704;28;20204;-61
2021/12/17 07:54:09;;;;;;;20.48;9.27;;;;;;;;;;5012861;28;20200;-61
2021/12/17 07:56:40;;;;;;;23.83;9.13;;;;;;;;;;5013935;28;20303;-60
2021/12/17 07:59:06;;;;;;;21.48;8.93;;;;;;;;;;5011973;28;20646;-61
2021/12/17 08:01:32;;;;;;;30.48;9.90;;;;;;;;;;5011980;28;20295;-61
2021/12/17 08:03:57;;;;;;;18.85;8.63;;;;;;;;;;5012095;28;20578;-60
2021/12/17 08:06:22;;;;;;;21.38;9.32;;;;;;;;;;5012030;28;20559;-61
2021/12/17 08:08:47;;;;;;;30.45;9.60;;;;;;;;;;5013431;28;20249;-62
2021/12/17 08:11:13;;;;;;;22.50;9.45;;;;;;;;;;5012817;28;20225;-61
2021/12/17 08:13:38;;;;;;;24.90;9.32;;;;;;;;;;5012648;28;20212;-61
2021/12/17 08:16:19;;;;;;;27.92;9.70;;;;;;;;;;5012880;28;20326;-61
2021/12/17 08:19:08;;;;;;;20.73;9.07;;;;;;;;;;5012270;28;20258;-61
2021/12/17 08:24:52;;;;;;;24.83;9.35;;;;;;;;;;5011846;28;20215;-61
2021/12/17 08:32:00;;;;;;;18.50;7.88;;;;;;;;;;5012707;28;20254;-59
2021/12/17 08:34:25;;;;;;;18.83;8.63;;;;;;;;;;5010595;28;20212;-59
2021/12/17 08:36:50;;;;;;;23.30;10.73;;;;;;;;;;5011863;28;20236;-59
2021/12/17 08:39:15;;;;;;;25.42;12.77;;;;;;;;;;5011645;28;20201;-60
2021/12/17 08:41:41;;;;;;;22.38;8.13;;;;;;;;;;5011420;28;20529;-59
2021/12/17 08:44:07;;;;;;;15.68;7.97;;;;;;;;;;5011774;28;20244;-60
2021/12/17 08:46:32;;;;;;;19.05;8.35;;;;;;;;;;5012101;28;20216;-59
2021/12/17 08:48:58;;;;;;;16.60;7.35;;;;;;;;;;5012453;28;20224;-58
2021/12/17 08:51:24;;;;;;;15.57;6.72;;;;;;;;;;5012076;28;20218;-59
2021/12/17 08:53:49;;;;;;;13.65;6.03;;;;;;;;;;5010487;28;20217;-59
2021/12/17 08:56:18;;;;;;;15.63;7.28;;;;;;;;;;5007931;28;20204;-59
2021/12/17 08:58:44;;;;;;;14.98;6.30;;;;;;;;;;5011709;28;20212;-59
2021/12/17 09:01:09;;;;;;;10.85;5.28;;;;;;;;;;5011350;28;20216;-59
2021/12/17 09:03:34;;;;;;;11.93;5.60;;;;;;;;;;5012592;28;20216;-59
2021/12/17 09:06:00;;;;;;;10.82;5.50;;;;;;;;;;5012140;28;20235;-59
2021/12/17 09:08:25;;;;;;;9.80;4.65;;;;;;;;;;5011437;28;20216;-59
2021/12/17 09:10:55;;;;;;;10.57;4.97;;;;;;;;;;5012374;28;20248;-59
2021/12/17 09:13:21;;;;;;;11.90;5.10;;;;;;;;;;5012084;28;20235;-59
2021/12/17 09:15:46;;;;;;;12.05;5.38;;;;;;;;;;5011969;28;20611;-59
2021/12/17 09:18:11;;;;;;;12.35;5.10;;;;;;;;;;5011313;28;20223;-59
2021/12/17 09:20:37;;;;;;;10.23;4.63;;;;;;;;;;5012304;28;20236;-59
2021/12/17 09:23:02;;;;;;;13.45;4.68;;;;;;;;;;5011156;28;20251;-59
2021/12/17 09:25:29;;;;;;;13.07;5.30;;;;;;;;;;5011842;28;20299;-59
2021/12/17 09:27:54;;;;;;;10.27;4.78;;;;;;;;;;5011941;28;20223;-59
2021/12/17 09:30:19;;;;;;;11.45;5.13;;;;;;;;;;5010931;28;20216;-59
2021/12/17 09:32:44;;;;;;;7.03;3.40;;;;;;;;;;5012003;28;20209;-58
2021/12/17 09:35:11;;;;;;;6.40;3.60;;;;;;;;;;5009201;28;20216;-59
2021/12/17 09:37:37;;;;;;;8.27;3.90;;;;;;;;;;5011636;28;20235;-59
2021/12/17 09:40:06;;;;;;;8.15;4.30;;;;;;;;;;5011499;28;20688;-59
2021/12/17 09:42:31;;;;;;;7.82;4.30;;;;;;;;;;5010771;28;20230;-59
2021/12/17 09:44:56;;;;;;;8.93;4.30;;;;;;;;;;5008711;28;20229;-59
2021/12/17 09:47:21;;;;;;;9.30;4.20;;;;;;;;;;4992040;28;20575;-59
2021/12/17 09:49:47;;;;;;;9.05;4.28;;;;;;;;;;4993594;28;20229;-59
2021/12/17 09:52:12;;;;;;;8.25;4.05;;;;;;;;;;4995839;28;20236;-59
2021/12/17 09:54:37;;;;;;;7.88;4.20;;;;;;;;;;4996206;28;20324;-59
2021/12/17 09:57:03;;;;;;;10.32;4.40;;;;;;;;;;4994457;28;20280;-59
2021/12/17 09:59:28;;;;;;;11.25;5.10;;;;;;;;;;4996181;28;20263;-59
2021/12/17 10:01:53;;;;;;;8.63;4.30;;;;;;;;;;4995623;28;20264;-59
2021/12/17 10:04:19;;;;;;;8.82;4.57;;;;;;;;;;4994458;28;20213;-59
2021/12/17 10:06:45;;;;;;;8.75;4.68;;;;;;;;;;5007001;28;20274;-59
2021/12/17 10:09:10;;;;;;;9.88;4.93;;;;;;;;;;5014287;28;20212;-59
2021/12/17 10:11:35;;;;;;;8.35;4.30;;;;;;;;;;5014319;28;20223;-59
2021/12/17 10:14:17;;;;;;;9.02;4.22;;;;;;;;;;5014968;28;20216;-61
2021/12/17 10:16:42;;;;;;;7.25;3.95;;;;;;;;;;5015635;28;20212;-59
2021/12/17 10:19:07;;;;;;;8.65;3.50;;;;;;;;;;5013766;28;20215;-59
2021/12/17 10:21:38;;;;;;;8.18;3.55;;;;;;;;;;5014104;28;20223;-59
2021/12/17 10:24:03;;;;;;;8.30;3.85;;;;;;;;;;5014661;28;20216;-59
2021/12/17 10:26:39;;;;;;;10.07;4.15;;;;;;;;;;5014488;28;20548;-59
2021/12/17 10:29:04;;;;;;;7.07;3.40;;;;;;;;;;5010221;28;20590;-59
2021/12/17 10:31:30;;;;;;;10.02;3.72;;;;;;;;;;4995684;28;20264;-59
2021/12/17 10:33:58;;;;;;;8.23;3.88;;;;;;;;;;4994814;28;20249;-59
2021/12/17 10:36:31;;;;;;;9.35;4.65;;;;;;;;;;4995967;28;20675;-59
2021/12/17 10:38:56;;;;;;;6.95;4.07;;;;;;;;;;5013507;28;20710;-59
2021/12/17 10:41:24;;;;;;;9.77;4.65;;;;;;;;;;5013513;28;20204;-60
2021/12/17 10:43:55;;;;;;;10.68;4.95;;;;;;;;;;5013755;28;20564;-59
2021/12/17 10:46:26;;;;;;;11.18;4.53;;;;;;;;;;5013707;28;20220;-59
2021/12/17 10:48:56;;;;;;;12.98;4.85;;;;;;;;;;5014933;28;20304;-59
2021/12/17 10:51:45;;;;;;;11.30;5.05;;;;;;;;;;5012991;28;20296;-59
2021/12/17 10:54:11;;;;;;;11.68;4.78;;;;;;;;;;5013341;28;20224;-59
2021/12/17 10:56:37;;;;;;;10.48;4.50;;;;;;;;;;5029257;28;20511;-59
2021/12/17 10:59:07;;;;;;;10.77;4.43;;;;;;;;;;5014164;28;20625;-59
2021/12/17 11:01:34;;;;;;;11.02;5.30;;;;;;;;;;5013171;28;20259;-59
2021/12/17 11:04:04;;;;;;;12.73;5.93;;;;;;;;;;5014511;28;20291;-59
2021/12/17 11:06:42;;;;;;;12.60;7.63;;;;;;;;;;5014224;28;20331;-58
2021/12/17 11:09:08;;;;;;;14.43;12.20;;;;;;;;;;5013064;28;20216;-59
2021/12/17 11:11:40;;;;;;;14.32;9.63;;;;;;;;;;5014059;28;20213;-59
2021/12/17 11:14:06;;;;;;;13.98;7.70;;;;;;;;;;5013861;28;20586;-59
2021/12/17 11:16:31;;;;;;;10.90;5.95;;;;;;;;;;5013756;28;20736;-59
2021/12/17 11:18:56;;;;;;;10.43;4.78;;;;;;;;;;5014189;28;20299;-58
2021/12/17 11:21:22;;;;;;;11.55;5.53;;;;;;;;;;5012848;28;20265;-59
2021/12/17 11:23:47;;;;;;;10.52;6.22;;;;;;;;;;5013893;28;20219;-59
2021/12/17 11:26:13;;;;;;;9.05;4.75;;;;;;;;;;5006078;28;20220;-59
2021/12/17 11:28:38;;;;;;;12.48;7.60;;;;;;;;;;5029331;28;20211;-59
2021/12/17 11:31:03;;;;;;;6.10;3.78;;;;;;;;;;5028363;28;20264;-59
2021/12/17 11:33:29;;;;;;;8.13;4.03;;;;;;;;;;5031649;28;20200;-59
2021/12/17 11:35:54;;;;;;;6.78;4.15;;;;;;;;;;5020861;28;20223;-59
2021/12/17 11:38:24;;;;;;;9.52;6.20;;;;;;;;;;5011316;28;20358;-58
2021/12/17 11:40:52;;;;;;;11.88;8.82;;;;;;;;;;5010089;28;20212;-59
2021/12/17 11:43:29;;;;;;;4.85;3.35;;;;;;;;;;5005724;28;20690;-59
2021/12/17 11:45:56;;;;;;;8.38;7.47;;;;;;;;;;5013315;28;20315;-59
2021/12/17 11:48:21;;;;;;;4.00;1.92;;;;;;;;;;5010084;28;20236;-59
2021/12/17 11:50:55;;;;;;;4.47;3.38;;;;;;;;;;5009222;28;20259;-59
2021/12/17 11:53:22;;;;;;;2.30;1.50;;;;;;;;;;5003617;28;20220;-59
2021/12/17 11:55:48;;;;;;;2.50;1.80;;;;;;;;;;5005111;28;20224;-59
2021/12/17 11:58:16;;;;;;;2.85;1.50;;;;;;;;;;5004201;28;20235;-59
2021/12/17 12:00:41;;;;;;;2.38;1.20;;;;;;;;;;5005585;28;20282;-59
2021/12/17 12:03:16;;;;;;;2.47;1.30;;;;;;;;;;5004932;28;20696;-59
2021/12/17 12:05:42;;;;;;;2.85;1.60;;;;;;;;;;5004594;28;20290;-59
2021/12/17 12:08:25;;;;;;;2.13;1.40;;;;;;;;;;5005032;28;20224;-61
2021/12/17 12:11:10;;;;;;;2.47;1.25;;;;;;;;;;5003913;28;20231;-59
2021/12/17 12:13:37;;;;;;;3.67;1.33;;;;;;;;;;5002625;28;20302;-58
2021/12/17 12:16:03;;;;;;;4.15;2.10;;;;;;;;;;5003504;28;20707;-59
2021/12/17 12:18:39;;;;;;;2.85;1.40;;;;;;;;;;5002971;28;20642;-58
2021/12/17 12:21:04;;;;;;;2.58;1.70;;;;;;;;;;5004615;28;20212;-59
2021/12/17 12:23:30;;;;;;;3.20;1.40;;;;;;;;;;5004574;28;20220;-58
2021/12/17 12:26:01;;;;;;;2.72;1.42;;;;;;;;;;5003623;28;20626;-59
2021/12/17 12:28:44;;;;;;;3.28;1.52;;;;;;;;;;5004702;28;20254;-59
2021/12/17 12:31:09;;;;;;;3.42;2.40;;;;;;;;;;5004609;28;20228;-59
2021/12/17 12:33:35;;;;;;;4.63;1.70;;;;;;;;;;5004457;28;20223;-59
2021/12/17 12:36:00;;;;;;;4.32;1.80;;;;;;;;;;5003598;28;21198;-61
2021/12/17 12:38:28;;;;;;;3.38;1.90;;;;;;;;;;5004918;28;20299;-58
2021/12/17 12:40:56;;;;;;;2.70;1.75;;;;;;;;;;5003903;28;20240;-59
2021/12/17 12:43:25;;;;;;;4.20;1.90;;;;;;;;;;5004868;28;20216;-59
2021/12/17 12:45:51;;;;;;;6.75;4.80;;;;;;;;;;5003912;28;20228;-59
2021/12/17 12:48:32;;;;;;;6.43;4.60;;;;;;;;;;5004365;28;20224;-59
2021/12/17 12:51:18;;;;;;;4.93;1.77;;;;;;;;;;5004607;28;20232;-59
2021/12/17 12:53:46;;;;;;;4.60;2.60;;;;;;;;;;4984028;28;20231;-59
2021/12/17 12:56:16;;;;;;;4.70;2.80;;;;;;;;;;4984327;28;20245;-59
2021/12/17 12:58:42;;;;;;;4.25;2.15;;;;;;;;;;4985034;28;20642;-59
2021/12/17 13:01:07;;;;;;;4.82;2.22;;;;;;;;;;4998669;28;20220;-59
2021/12/17 13:03:33;;;;;;;3.08;1.50;;;;;;;;;;5000232;28;20212;-59
2021/12/17 13:06:00;;;;;;;3.80;2.10;;;;;;;;;;5003198;28;20208;-59
2021/12/17 13:08:26;;;;;;;4.85;2.10;;;;;;;;;;5003160;28;20243;-59
2021/12/17 13:10:55;;;;;;;4.72;2.53;;;;;;;;;;5004255;28;20224;-60
2021/12/17 13:13:30;;;;;;;4.43;2.10;;;;;;;;;;5004147;28;20220;-59
2021/12/17 13:21:04;;;;;;;5.07;2.20;;;;;;;;;;5005599;28;20745;-59
2021/12/17 13:23:31;;;;;;;3.75;2.45;;;;;;;;;;5009190;28;20266;-59
2021/12/17 13:25:59;;;;;;;4.00;2.45;;;;;;;;;;5015547;28;20236;-59
2021/12/17 13:28:25;;;;;;;4.03;2.42;;;;;;;;;;5009878;28;20331;-59
2021/12/17 13:30:53;;;;;;;6.25;2.30;;;;;;;;;;5009913;28;20307;-59
2021/12/17 13:33:19;;;;;;;4.05;1.92;;;;;;;;;;5009274;28;20219;-59
2021/12/17 13:35:45;;;;;;;3.92;1.65;;;;;;;;;;5027650;28;20207;-59
2021/12/17 13:38:11;;;;;;;5.53;2.10;;;;;;;;;;5023459;28;20227;-59
2021/12/17 13:40:37;;;;;;;4.32;2.00;;;;;;;;;;5008820;28;20220;-59
2021/12/17 13:43:03;;;;;;;4.13;2.00;;;;;;;;;;5009981;28;20220;-60
2021/12/17 13:45:30;;;;;;;4.15;2.05;;;;;;;;;;5011663;28;20251;-59
2021/12/17 13:47:56;;;;;;;3.85;2.00;;;;;;;;;;5030231;28;20254;-59
2021/12/17 13:50:23;;;;;;;2.85;1.92;;;;;;;;;;5029664;28;20220;-59
2021/12/17 13:52:49;;;;;;;7.68;2.67;;;;;;;;;;5021318;28;20235;-59
2021/12/17 13:55:16;;;;;;;4.50;2.20;;;;;;;;;;5014997;28;20291;-59
2021/12/17 13:57:42;;;;;;;4.93;2.58;;;;;;;;;;5014767;28;20391;-59
2021/12/17 14:00:11;;;;;;;5.68;2.50;;;;;;;;;;5011852;28;20655;-59
2021/12/17 14:02:37;;;;;;;3.38;2.20;;;;;;;;;;4995875;28;20220;-59
2021/12/17 14:05:04;;;;;;;3.80;2.45;;;;;;;;;;4996105;28;20221;-60
2021/12/17 14:07:29;;;;;;;4.78;2.22;;;;;;;;;;4996625;28;20641;-59
2021/12/17 14:09:56;;;;;;;5.95;2.88;;;;;;;;;;4997300;28;20477;-58
2021/12/17 14:12:31;;;;;;;6.38;2.83;;;;;;;;;;5006746;28;20208;-58
2021/12/17 14:14:57;;;;;;;102.35;70.53;;;;;;;;;;5007947;28;20298;-58
2021/12/17 14:17:22;;;;;;;31.23;27.10;;;;;;;;;;5005678;28;20572;-58
2021/12/17 14:19:48;;;;;;;7.32;5.03;;;;;;;;;;5007501;28;20217;-58
2021/12/17 14:22:27;;;;;;;5.32;2.97;;;;;;;;;;5007440;28;20322;-58
2021/12/17 14:24:52;;;;;;;5.15;2.70;;;;;;;;;;5004702;28;20209;-65
2021/12/17 14:27:17;;;;;;;6.32;4.97;;;;;;;;;;4994139;28;20216;-65
2021/12/17 14:29:42;;;;;;;7.57;3.72;;;;;;;;;;4992737;28;20480;-65
2021/12/17 14:32:14;;;;;;;4.47;2.67;;;;;;;;;;4993538;28;20765;-65
2021/12/17 14:34:40;;;;;;;8.55;4.22;;;;;;;;;;5002257;28;20260;-64
2021/12/17 14:37:05;;;;;;;5.20;3.00;;;;;;;;;;4998687;28;20222;-64
2021/12/17 14:39:34;;;;;;;7.45;3.90;;;;;;;;;;5011430;28;20229;-64
2021/12/17 14:42:02;;;;;;;5.70;3.47;;;;;;;;;;5005517;28;20212;-64
2021/12/17 14:47:01;;;;;;;5.75;3.00;;;;;;;;;;5006559;28;20700;-64
2021/12/17 15:05:02;;;;;;;5.72;3.40;;;;;;;;;;5006699;28;20247;-59
2021/12/17 15:07:27;;;;;;;5.00;3.10;;;;;;;;;;5005510;28;20311;-59
2021/12/17 15:09:52;;;;;;;6.72;3.42;;;;;;;;;;5006717;28;20233;-59
2021/12/17 15:12:37;;;;;;;5.97;3.20;;;;;;;;;;4998841;28;20251;-59
2021/12/17 15:15:03;;;;;;;5.72;3.45;;;;;;;;;;4997878;28;20216;-59
2021/12/17 15:17:29;;;;;;;8.43;4.10;;;;;;;;;;4998532;28;20216;-59
2021/12/17 15:19:54;;;;;;;6.90;4.10;;;;;;;;;;5005969;28;20423;-59
2021/12/17 15:22:19;;;;;;;7.72;4.70;;;;;;;;;;5003928;28;20731;-58
2021/12/17 15:24:45;;;;;;;8.75;4.60;;;;;;;;;;5005435;28;20215;-58
2021/12/17 15:27:12;;;;;;;6.68;4.50;;;;;;;;;;5006183;28;20580;-58
2021/12/17 15:29:37;;;;;;;8.80;4.28;;;;;;;;;;5005647;28;20700;-57
2021/12/17 15:32:03;;;;;;;8.00;4.95;;;;;;;;;;5005828;28;20244;-58
2021/12/17 15:34:28;;;;;;;6.13;4.25;;;;;;;;;;5000025;28;20235;-58
2021/12/17 15:36:57;;;;;;;7.97;4.68;;;;;;;;;;4997926;28;20594;-57
2021/12/17 15:39:22;;;;;;;7.50;4.18;;;;;;;;;;4996859;28;20300;-58
2021/12/17 15:41:47;;;;;;;7.47;4.10;;;;;;;;;;5002127;28;20217;-57
2021/12/17 15:44:13;;;;;;;6.60;4.00;;;;;;;;;;5005516;28;20623;-58
2021/12/17 15:46:38;;;;;;;6.82;4.10;;;;;;;;;;5005841;28;20232;-58
2021/12/17 15:49:05;;;;;;;6.57;3.80;;;;;;;;;;5004490;28;20322;-58
2021/12/17 15:51:31;;;;;;;7.60;4.03;;;;;;;;;;5005784;28;20358;-58
2021/12/17 15:53:57;;;;;;;5.95;3.88;;;;;;;;;;5005665;28;20299;-58
2021/12/17 15:56:22;;;;;;;6.38;3.90;;;;;;;;;;4998484;28;20208;-58
2021/12/17 15:58:47;;;;;;;9.15;3.97;;;;;;;;;;4997146;28;20677;-57
2021/12/17 16:01:13;;;;;;;5.13;3.63;;;;;;;;;;4997314;28;20620;-57
2021/12/17 16:03:38;;;;;;;5.90;3.88;;;;;;;;;;4999004;28;20220;-57
2021/12/17 16:06:05;;;;;;;6.10;3.67;;;;;;;;;;5004364;28;20212;-57
2021/12/17 16:08:33;;;;;;;6.43;3.80;;;;;;;;;;5004821;28;20562;-57
2021/12/17 16:11:19;;;;;;;5.10;3.42;;;;;;;;;;5004486;28;20244;-57
2021/12/17 16:21:38;;;;;;;5.22;3.25;;;;;;;;;;4997031;28;20236;-57
2021/12/17 16:24:04;;;;;;;7.15;3.88;;;;;;;;;;4996002;28;20248;-57
2021/12/17 16:26:29;;;;;;;7.18;3.70;;;;;;;;;;5001124;28;20279;-58
2021/12/17 16:28:54;;;;;;;7.63;4.20;;;;;;;;;;5005232;28;20767;-58
2021/12/17 16:31:21;;;;;;;6.28;4.07;;;;;;;;;;5003778;28;20306;-58
2021/12/17 16:33:48;;;;;;;7.10;4.45;;;;;;;;;;5004572;28;20419;-58
2021/12/17 16:36:14;;;;;;;5.90;3.50;;;;;;;;;;5003232;28;20216;-59
2021/12/17 16:38:39;;;;;;;6.68;4.18;;;;;;;;;;5004075;28;20706;-59
2021/12/17 16:41:04;;;;;;;8.00;3.92;;;;;;;;;;5003058;28;20208;-59
2021/12/17 16:43:30;;;;;;;6.00;3.58;;;;;;;;;;4996000;28;20212;-59
2021/12/17 16:46:10;;;;;;;6.57;3.80;;;;;;;;;;4995675;28;20239;-58
2021/12/17 16:48:36;;;;;;;5.50;3.30;;;;;;;;;;4997558;28;20212;-59
2021/12/17 16:51:02;;;;;;;5.88;3.75;;;;;;;;;;5004495;28;20232;-59
2021/12/17 16:53:27;;;;;;;5.75;3.35;;;;;;;;;;5003908;28;20212;-59
2021/12/17 16:55:52;;;;;;;7.25;3.13;;;;;;;;;;5020220;28;20216;-59
2021/12/17 16:58:18;;;;;;;5.07;3.60;;;;;;;;;;5003688;28;20244;-59
2021/12/17 17:00:43;;;;;;;5.20;3.13;;;;;;;;;;5004370;28;20220;-59
2021/12/17 17:03:08;;;;;;;6.32;3.38;;;;;;;;;;5004213;28;20294;-59
2021/12/17 17:05:33;;;;;;;4.90;2.70;;;;;;;;;;4997097;28;20232;-59
2021/12/17 17:07:59;;;;;;;3.55;2.33;;;;;;;;;;4995076;28;20209;-59
2021/12/17 17:10:29;;;;;;;4.32;2.80;;;;;;;;;;4995845;28;20225;-59
2021/12/17 17:12:59;;;;;;;4.70;2.70;;;;;;;;;;5003384;28;20216;-58
2021/12/17 17:15:24;;;;;;;5.20;3.50;;;;;;;;;;5003517;28;20259;-58
2021/12/17 17:17:49;;;;;;;9.27;5.10;;;;;;;;;;5004368;28;20217;-59
2021/12/17 17:20:15;;;;;;;6.78;3.08;;;;;;;;;;5003179;28;20212;-59